EJU51VN LIEO-LIMC
Flight info
| Callsign | EJU51VN |
|---|---|
| Flight time | N/A |
| Altitude | 34000 |
| Route | BATOX6K/05 BATOX DCT BEGUD DCT UPDIN DCT SPEZI DCT IDONA DCT MEBUR |
| Aircraft | A20N/M-SDE2E3FGHIRWXY/LB1 |
Departure
| Time | N/A |
|---|---|
| Airport | Olbia Costa Smeralda Airport (LIEO) |
Arrival
| Time | 2026-05-05 20:28 |
|---|---|
| Airport | Milan Malpensa International Airport (LIMC) |
| Time | Latitude | Longitude | Altitude | Speed | Heading |
|---|---|---|---|---|---|
| 2026-05-05 19:48 | 44.60226 | 9.22489 | 22651 ft | 430 kts | 342° |
| 2026-05-05 19:48 | 44.63111 | 9.21522 | 22015 ft | 426 kts | 341° |
| 2026-05-05 19:48 | 44.65984 | 9.20550 | 21374 ft | 423 kts | 341° |
| 2026-05-05 19:49 | 44.68833 | 9.19583 | 20761 ft | 420 kts | 341° |
| 2026-05-05 19:49 | 44.71614 | 9.18642 | 20304 ft | 413 kts | 341° |
| 2026-05-05 19:49 | 44.74356 | 9.17639 | 19956 ft | 400 kts | 335° |
| 2026-05-05 19:49 | 44.76671 | 9.15736 | 19637 ft | 375 kts | 310° |
| 2026-05-05 19:50 | 44.78177 | 9.12915 | 19442 ft | 351 kts | 294° |
| 2026-05-05 19:50 | 44.79319 | 9.09955 | 19244 ft | 339 kts | 292° |
| 2026-05-05 19:50 | 44.80395 | 9.07087 | 19044 ft | 328 kts | 292° |
| 2026-05-05 19:50 | 44.81470 | 9.04292 | 18777 ft | 321 kts | 293° |
| 2026-05-05 19:51 | 44.82549 | 9.01562 | 18398 ft | 319 kts | 293° |
| 2026-05-05 19:51 | 44.83640 | 8.98852 | 17978 ft | 317 kts | 294° |
| 2026-05-05 19:51 | 44.84719 | 8.96203 | 17547 ft | 315 kts | 294° |
| 2026-05-05 19:51 | 44.85809 | 8.93546 | 17145 ft | 313 kts | 294° |
| 2026-05-05 19:52 | 44.86897 | 8.90909 | 16743 ft | 311 kts | 295° |
| 2026-05-05 19:52 | 44.87977 | 8.88288 | 16346 ft | 309 kts | 295° |
| 2026-05-05 19:52 | 44.89052 | 8.85682 | 15939 ft | 307 kts | 295° |
| 2026-05-05 19:52 | 44.90121 | 8.83099 | 15543 ft | 305 kts | 295° |
| 2026-05-05 19:53 | 44.91180 | 8.80532 | 15134 ft | 303 kts | 296° |
| 2026-05-05 19:53 | 44.92235 | 8.77979 | 14732 ft | 301 kts | 296° |
| 2026-05-05 19:53 | 44.93279 | 8.75447 | 14322 ft | 299 kts | 296° |
| 2026-05-05 19:53 | 44.94316 | 8.72927 | 13919 ft | 297 kts | 296° |
| 2026-05-05 19:54 | 44.95352 | 8.70411 | 13526 ft | 295 kts | 296° |
| 2026-05-05 19:54 | 44.96378 | 8.67912 | 13115 ft | 294 kts | 296° |
| 2026-05-05 19:54 | 44.97398 | 8.65434 | 12701 ft | 293 kts | 296° |
| 2026-05-05 19:54 | 44.98417 | 8.62947 | 12296 ft | 292 kts | 296° |
| 2026-05-05 19:55 | 44.99460 | 8.60530 | 11863 ft | 294 kts | 304° |
| 2026-05-05 19:55 | 45.01058 | 8.58696 | 11397 ft | 303 kts | 333° |
| 2026-05-05 19:55 | 45.03102 | 8.57930 | 11013 ft | 304 kts | 347° |
| 2026-05-05 19:55 | 45.05177 | 8.57409 | 10632 ft | 303 kts | 348° |
| 2026-05-05 19:56 | 45.07247 | 8.56877 | 10234 ft | 302 kts | 347° |
| 2026-05-05 19:56 | 45.09304 | 8.56329 | 9840 ft | 300 kts | 347° |
| 2026-05-05 19:56 | 45.11327 | 8.55778 | 9485 ft | 297 kts | 347° |
| 2026-05-05 19:56 | 45.13327 | 8.55230 | 9304 ft | 287 kts | 347° |
| 2026-05-05 19:57 | 45.15261 | 8.54692 | 9111 ft | 277 kts | 347° |
| 2026-05-05 19:57 | 45.17104 | 8.54179 | 8952 ft | 269 kts | 347° |
| 2026-05-05 19:57 | 45.18921 | 8.53675 | 8754 ft | 262 kts | 347° |
| 2026-05-05 19:57 | 45.20686 | 8.53182 | 8450 ft | 259 kts | 348° |
| 2026-05-05 19:58 | 45.22464 | 8.52685 | 8113 ft | 258 kts | 348° |
| 2026-05-05 19:58 | 45.24207 | 8.52201 | 7781 ft | 257 kts | 348° |
| 2026-05-05 19:58 | 45.25957 | 8.51714 | 7468 ft | 255 kts | 348° |
| 2026-05-05 19:58 | 45.27683 | 8.51237 | 7167 ft | 254 kts | 348° |
| 2026-05-05 19:59 | 45.29417 | 8.50756 | 6857 ft | 252 kts | 349° |
| 2026-05-05 19:59 | 45.31137 | 8.50665 | 6509 ft | 252 kts | 15° |
| 2026-05-05 19:59 | 45.32634 | 8.51849 | 6195 ft | 247 kts | 49° |
| 2026-05-05 19:59 | 45.33475 | 8.53925 | 5979 ft | 240 kts | 78° |
| 2026-05-05 20:00 | 45.33781 | 8.56199 | 5954 ft | 232 kts | 83° |
| 2026-05-05 20:00 | 45.34046 | 8.58401 | 5955 ft | 219 kts | 82° |
| 2026-05-05 20:00 | 45.34314 | 8.60518 | 5977 ft | 219 kts | 82° |
| 2026-05-05 20:00 | 45.34575 | 8.62642 | 5981 ft | 219 kts | 88° |
| 2026-05-05 20:01 | 45.34329 | 8.64735 | 5962 ft | 214 kts | 121° |
| 2026-05-05 20:01 | 45.33371 | 8.66279 | 5968 ft | 210 kts | 150° |
| 2026-05-05 20:01 | 45.32011 | 8.66989 | 5977 ft | 209 kts | 169° |
| 2026-05-05 20:01 | 45.30579 | 8.67357 | 5956 ft | 210 kts | 170° |
| 2026-05-05 20:02 | 45.29139 | 8.67725 | 5962 ft | 210 kts | 170° |
| 2026-05-05 20:02 | 45.27704 | 8.68104 | 5970 ft | 210 kts | 170° |
| 2026-05-05 20:02 | 45.26268 | 8.68492 | 5976 ft | 210 kts | 170° |
| 2026-05-05 20:02 | 45.24826 | 8.68884 | 5978 ft | 210 kts | 170° |
| 2026-05-05 20:03 | 45.23402 | 8.69274 | 5985 ft | 210 kts | 170° |
| 2026-05-05 20:03 | 45.21968 | 8.69665 | 5967 ft | 210 kts | 170° |
| 2026-05-05 20:03 | 45.20532 | 8.70058 | 5971 ft | 210 kts | 170° |
| 2026-05-05 20:03 | 45.19085 | 8.70454 | 5975 ft | 210 kts | 169° |
| 2026-05-05 20:04 | 45.17649 | 8.70853 | 5977 ft | 209 kts | 169° |
| 2026-05-05 20:04 | 45.16227 | 8.71252 | 5985 ft | 209 kts | 170° |
| 2026-05-05 20:04 | 45.14800 | 8.71664 | 5973 ft | 208 kts | 169° |
| 2026-05-05 20:04 | 45.13390 | 8.72074 | 5970 ft | 208 kts | 169° |
| 2026-05-05 20:05 | 45.11969 | 8.72485 | 5978 ft | 208 kts | 169° |
| 2026-05-05 20:05 | 45.10548 | 8.72897 | 5973 ft | 208 kts | 169° |
| 2026-05-05 20:05 | 45.09145 | 8.73313 | 5969 ft | 208 kts | 169° |
| 2026-05-05 20:05 | 45.07718 | 8.73738 | 5960 ft | 208 kts | 170° |
| 2026-05-05 20:06 | 45.06293 | 8.74163 | 5965 ft | 208 kts | 169° |
| 2026-05-05 20:06 | 45.04874 | 8.74580 | 5961 ft | 210 kts | 170° |
| 2026-05-05 20:06 | 45.03442 | 8.75000 | 5961 ft | 209 kts | 169° |
| 2026-05-05 20:06 | 45.02025 | 8.75414 | 5982 ft | 210 kts | 169° |
| 2026-05-05 20:07 | 45.00591 | 8.75835 | 5972 ft | 208 kts | 170° |
| 2026-05-05 20:07 | 44.99164 | 8.76262 | 5966 ft | 209 kts | 169° |
| 2026-05-05 20:07 | 44.97752 | 8.76688 | 5966 ft | 209 kts | 170° |
| 2026-05-05 20:07 | 44.96319 | 8.77124 | 5963 ft | 209 kts | 169° |
| 2026-05-05 20:08 | 44.94901 | 8.77557 | 5967 ft | 210 kts | 169° |
| 2026-05-05 20:08 | 44.93483 | 8.77988 | 5966 ft | 209 kts | 169° |
| 2026-05-05 20:08 | 44.92051 | 8.78424 | 5962 ft | 208 kts | 169° |
| 2026-05-05 20:08 | 44.90648 | 8.78854 | 5961 ft | 208 kts | 169° |
| 2026-05-05 20:09 | 44.89230 | 8.79289 | 5964 ft | 207 kts | 169° |
| 2026-05-05 20:09 | 44.87815 | 8.79719 | 5964 ft | 208 kts | 169° |
| 2026-05-05 20:09 | 44.86388 | 8.80150 | 5966 ft | 208 kts | 169° |
| 2026-05-05 20:09 | 44.84966 | 8.80582 | 5969 ft | 208 kts | 169° |
| 2026-05-05 20:10 | 44.83561 | 8.81005 | 5968 ft | 209 kts | 169° |
| 2026-05-05 20:10 | 44.82137 | 8.81437 | 5966 ft | 209 kts | 169° |
| 2026-05-05 20:10 | 44.80714 | 8.81871 | 5969 ft | 208 kts | 169° |
| 2026-05-05 20:10 | 44.79292 | 8.82308 | 5969 ft | 209 kts | 169° |
| 2026-05-05 20:11 | 44.77886 | 8.82743 | 5972 ft | 209 kts | 169° |
| 2026-05-05 20:11 | 44.76469 | 8.83180 | 5974 ft | 208 kts | 169° |
| 2026-05-05 20:11 | 44.75039 | 8.83619 | 5970 ft | 209 kts | 169° |
| 2026-05-05 20:11 | 44.73621 | 8.84059 | 5969 ft | 208 kts | 169° |
| 2026-05-05 20:12 | 44.72209 | 8.84504 | 5974 ft | 208 kts | 168° |
| 2026-05-05 20:12 | 44.70914 | 8.85383 | 5961 ft | 213 kts | 139° |
| 2026-05-05 20:12 | 44.70160 | 8.87216 | 5972 ft | 222 kts | 104° |
| 2026-05-05 20:12 | 44.70261 | 8.89373 | 5976 ft | 228 kts | 70° |
| 2026-05-05 20:13 | 44.71202 | 8.91161 | 5978 ft | 232 kts | 36° |
| 2026-05-05 20:13 | 44.72648 | 8.92121 | 5994 ft | 232 kts | 17° |
| 2026-05-05 20:13 | 44.74180 | 8.92747 | 5983 ft | 231 kts | 14° |
| 2026-05-05 20:13 | 44.75753 | 8.93318 | 5976 ft | 231 kts | 13° |
| 2026-05-05 20:14 | 44.77308 | 8.93871 | 5975 ft | 231 kts | 13° |
| 2026-05-05 20:14 | 44.78864 | 8.94421 | 5973 ft | 231 kts | 13° |
| 2026-05-05 20:14 | 44.80439 | 8.94640 | 5970 ft | 229 kts | 352° |
| 2026-05-05 20:14 | 44.82007 | 8.94247 | 5980 ft | 228 kts | 345° |
| 2026-05-05 20:15 | 44.83567 | 8.93736 | 5975 ft | 228 kts | 345° |
| 2026-05-05 20:15 | 44.85099 | 8.93253 | 5975 ft | 228 kts | 346° |
| 2026-05-05 20:15 | 44.86670 | 8.92798 | 5972 ft | 229 kts | 347° |
| 2026-05-05 20:15 | 44.88235 | 8.92376 | 5972 ft | 229 kts | 347° |
| 2026-05-05 20:16 | 44.89789 | 8.91973 | 5972 ft | 229 kts | 347° |
| 2026-05-05 20:16 | 44.91371 | 8.91571 | 5975 ft | 230 kts | 348° |
| 2026-05-05 20:16 | 44.92935 | 8.91181 | 5976 ft | 229 kts | 348° |
| 2026-05-05 20:16 | 44.94514 | 8.90790 | 5978 ft | 234 kts | 348° |
| 2026-05-05 20:17 | 44.96185 | 8.90374 | 5988 ft | 248 kts | 348° |
| 2026-05-05 20:17 | 44.97892 | 8.89958 | 5981 ft | 250 kts | 349° |
| 2026-05-05 20:17 | 44.99623 | 8.89537 | 5764 ft | 255 kts | 349° |
| 2026-05-05 20:17 | 45.01391 | 8.89104 | 5214 ft | 262 kts | 349° |
| 2026-05-05 20:18 | 45.03122 | 8.88680 | 5244 ft | 246 kts | 349° |
| 2026-05-05 20:18 | 45.04813 | 8.88266 | 5481 ft | 246 kts | 349° |
| 2026-05-05 20:18 | 45.06513 | 8.87849 | 5728 ft | 248 kts | 349° |
| 2026-05-05 20:18 | 45.08224 | 8.87428 | 5942 ft | 250 kts | 349° |
| 2026-05-05 20:19 | 45.09930 | 8.87008 | 5961 ft | 250 kts | 349° |
| 2026-05-05 20:19 | 45.11646 | 8.86587 | 5965 ft | 250 kts | 349° |
| 2026-05-05 20:19 | 45.13371 | 8.86162 | 5971 ft | 250 kts | 349° |
| 2026-05-05 20:19 | 45.15065 | 8.85744 | 5966 ft | 250 kts | 349° |
| 2026-05-05 20:20 | 45.16794 | 8.85317 | 5972 ft | 251 kts | 349° |
| 2026-05-05 20:20 | 45.18515 | 8.84894 | 5982 ft | 251 kts | 349° |
| 2026-05-05 20:20 | 45.20221 | 8.84473 | 5974 ft | 250 kts | 349° |
| 2026-05-05 20:20 | 45.21937 | 8.84049 | 5969 ft | 250 kts | 349° |
| 2026-05-05 20:21 | 45.23655 | 8.83623 | 5970 ft | 250 kts | 349° |
| 2026-05-05 20:21 | 45.25365 | 8.83201 | 5973 ft | 250 kts | 349° |
| 2026-05-05 20:21 | 45.27085 | 8.82776 | 5979 ft | 249 kts | 350° |
| 2026-05-05 20:21 | 45.28785 | 8.82356 | 5976 ft | 249 kts | 350° |
| 2026-05-05 20:22 | 45.30494 | 8.81934 | 5979 ft | 248 kts | 350° |
| 2026-05-05 20:22 | 45.32197 | 8.81513 | 5980 ft | 248 kts | 349° |
| 2026-05-05 20:22 | 45.33918 | 8.81087 | 5982 ft | 249 kts | 349° |
| 2026-05-05 20:22 | 45.35617 | 8.80666 | 5987 ft | 249 kts | 349° |
| 2026-05-05 20:23 | 45.37299 | 8.80247 | 5866 ft | 245 kts | 350° |
| 2026-05-05 20:23 | 45.38977 | 8.79828 | 5507 ft | 245 kts | 350° |
| 2026-05-05 20:23 | 45.40659 | 8.79409 | 5028 ft | 244 kts | 350° |
| 2026-05-05 20:23 | 45.42313 | 8.78998 | 4557 ft | 242 kts | 350° |
| 2026-05-05 20:24 | 45.43940 | 8.78588 | 4086 ft | 239 kts | 350° |
| 2026-05-05 20:24 | 45.45571 | 8.78149 | 3609 ft | 236 kts | 350° |
| 2026-05-05 20:24 | 45.47160 | 8.77713 | 3159 ft | 232 kts | 350° |
| 2026-05-05 20:24 | 45.48678 | 8.77298 | 2974 ft | 204 kts | 350° |
| 2026-05-05 20:25 | 45.49966 | 8.76949 | 2929 ft | 176 kts | 351° |
| 2026-05-05 20:25 | 45.51144 | 8.76629 | 2760 ft | 168 kts | 351° |
| 2026-05-05 20:25 | 45.52271 | 8.76320 | 2619 ft | 166 kts | 351° |
| 2026-05-05 20:25 | 45.53386 | 8.76013 | 2387 ft | 157 kts | 350° |
| 2026-05-05 20:26 | 45.54418 | 8.75727 | 2154 ft | 146 kts | 350° |
| 2026-05-05 20:26 | 45.55387 | 8.75459 | 1927 ft | 135 kts | 349° |
| 2026-05-05 20:26 | 45.56282 | 8.75212 | 1739 ft | 128 kts | 349° |
| 2026-05-05 20:26 | 45.57152 | 8.74972 | 1586 ft | 128 kts | 349° |
| 2026-05-05 20:27 | 45.58027 | 8.74729 | 1427 ft | 128 kts | 349° |
| 2026-05-05 20:27 | 45.58902 | 8.74487 | 1263 ft | 127 kts | 349° |
| 2026-05-05 20:27 | 45.59769 | 8.74248 | 1090 ft | 127 kts | 349° |
| 2026-05-05 20:27 | 45.60635 | 8.74009 | 921 ft | 126 kts | 349° |
| 2026-05-05 20:28 | 45.61496 | 8.73769 | 758 ft | 126 kts | 349° |
| 2026-05-05 20:28 | 45.62316 | 8.73549 | 715 ft | 103 kts | 347° |
| 2026-05-05 20:28 | 45.62850 | 8.73397 | 727 ft | 53 kts | 349° |
| 2026-05-05 20:28 | 45.63091 | 8.73298 | 732 ft | 31 kts | 330° |
| 2026-05-05 20:29 | 45.63245 | 8.73101 | 737 ft | 27 kts | 305° |
| 2026-05-05 20:29 | 45.63332 | 8.72921 | 740 ft | 10 kts | 304° |
| 2026-05-05 20:29 | 45.63372 | 8.72838 | 741 ft | 10 kts | 305° |
| 2026-05-05 20:29 | 45.63419 | 8.72739 | 742 ft | 12 kts | 306° |
| 2026-05-05 20:30 | 45.63496 | 8.72692 | 744 ft | 12 kts | 349° |
| 2026-05-05 20:30 | 45.63564 | 8.72673 | 745 ft | 9 kts | 349° |
| 2026-05-05 20:30 | 45.63626 | 8.72656 | 747 ft | 9 kts | 349° |
| 2026-05-05 20:30 | 45.63692 | 8.72637 | 748 ft | 10 kts | 349° |
| 2026-05-05 20:31 | 45.63767 | 8.72617 | 750 ft | 10 kts | 349° |
| 2026-05-05 20:31 | 45.63835 | 8.72598 | 752 ft | 9 kts | 349° |
| 2026-05-05 20:31 | 45.63902 | 8.72580 | 753 ft | 9 kts | 349° |
| 2026-05-05 20:31 | 45.63970 | 8.72561 | 754 ft | 10 kts | 349° |
| 2026-05-05 20:32 | 45.64047 | 8.72536 | 755 ft | 11 kts | 343° |
| 2026-05-05 20:32 | 45.64126 | 8.72510 | 757 ft | 11 kts | 349° |
| 2026-05-05 20:32 | 45.64202 | 8.72489 | 759 ft | 11 kts | 349° |
| 2026-05-05 20:32 | 45.64281 | 8.72467 | 760 ft | 12 kts | 349° |
| 2026-05-05 20:33 | 45.64365 | 8.72444 | 762 ft | 10 kts | 349° |
| 2026-05-05 20:33 | 45.64428 | 8.72428 | 763 ft | 7 kts | 1° |
| 2026-05-05 20:33 | 45.64458 | 8.72475 | 763 ft | 6 kts | 72° |
| 2026-05-05 20:33 | 45.64491 | 8.72494 | 763 ft | 4 kts | 349° |
| 2026-05-05 20:34 | 45.64525 | 8.72484 | 764 ft | 5 kts | 348° |